Time;durP1;ratioP1;P1;durP2;ratioP2;P2;SDS_P1;SDS_P2;PMS_P1;PMS_P2;Temp;Humidity;BMP_temperature;BMP_pressure;BME280_temperature;BME280_humidity;BME280_pressure;Samples;Min_cycle;Max_cycle;Signal;HPM_P1;HPM_P2
2022/03/27 00:01:45;;;;;;;;;;;;;;;;;;5053113;28;19905;-47
2022/03/27 00:04:11;;;;;;;;;;;;;;;;;;5053285;28;20004;-46
2022/03/27 00:06:37;;;;;;;;;;;;;;;;;;5053395;28;19919;-47
2022/03/27 00:09:03;;;;;;;;;;;;;;;;;;5053180;28;19905;-47
2022/03/27 00:11:29;;;;;;;;;;;;;;;;;;5053092;28;19928;-47
2022/03/27 00:13:55;;;;;;;;;;;;;;;;;;5052305;28;20322;-46
2022/03/27 00:16:20;;;;;;;;;;;;;;;;;;5053007;28;19908;-46
2022/03/27 00:18:47;;;;;;;;;;;;;;;;;;5053053;28;20275;-46
2022/03/27 00:21:13;;;;;;;;;;;;;;;;;;5053285;28;19912;-48
2022/03/27 00:23:39;;;;;;;;;;;;;;;;;;5053128;28;19908;-47
2022/03/27 00:26:05;;;;;;;;;;;;;;;;;;5052874;28;20370;-46
2022/03/27 00:28:34;;;;;;;;;;;;;;;;;;5052861;28;19916;-46
2022/03/27 00:31:00;;;;;;;;;;;;;;;;;;5052807;28;20389;-46
2022/03/27 00:33:26;;;;;;;;;;;;;;;;;;5052749;28;19911;-49
2022/03/27 00:35:52;;;;;;;;;;;;;;;;;;5052787;28;20359;-48
2022/03/27 00:38:18;;;;;;;;;;;;;;;;;;5052753;28;19905;-51
2022/03/27 00:40:44;;;;;;;;;;;;;;;;;;5052673;28;20429;-51
2022/03/27 00:43:10;;;;;;;;;;;;;;;;;;5052923;28;19999;-47
2022/03/27 00:45:36;;;;;;;;;;;;;;;;;;5052756;28;19912;-51
2022/03/27 00:48:02;;;;;;;;;;;;;;;;;;5052572;28;20365;-51
2022/03/27 00:50:30;;;;;;;;;;;;;;;;;;5052528;28;19912;-51
2022/03/27 00:52:56;;;;;;;;;;;;;;;;;;5052841;28;19905;-48
2022/03/27 00:55:22;;;;;;;;;;;;;;;;;;5052583;28;19911;-48
2022/03/27 00:57:48;;;;;;;;;;;;;;;;;;5052749;28;19905;-48
2022/03/27 01:00:14;;;;;;;;;;;;;;;;;;5052514;28;20268;-51
2022/03/27 01:02:41;;;;;;;;;;;;;;;;;;5052160;28;19912;-51
2022/03/27 01:05:07;;;;;;;;;;;;;;;;;;5052724;28;19951;-50
2022/03/27 01:07:33;;;;;;;;;;;;;;;;;;5052310;28;19913;-51
2022/03/27 01:09:59;;;;;;;;;;;;;;;;;;5052673;28;19911;-49
2022/03/27 01:12:24;;;;;;;;;;;;;;;;;;5052427;28;20359;-48
2022/03/27 01:14:50;;;;;;;;;;;;;;;;;;5052650;28;19995;-47
2022/03/27 01:17:16;;;;;;;;;;;;;;;;;;5052351;28;20455;-47
2022/03/27 01:19:43;;;;;;;;;;;;;;;;;;5052236;28;19905;-47
2022/03/27 01:22:09;;;;;;;;;;;;;;;;;;5052276;28;19904;-46
2022/03/27 01:24:35;;;;;;;;;;;;;;;;;;5052301;28;19931;-46
2022/03/27 01:27:00;;;;;;;;;;;;;;;;;;5056126;28;20383;-48
2022/03/27 01:29:26;;;;;;;;;;;;;;;;;;5056140;28;19984;-47
2022/03/27 01:31:53;;;;;;;;;;;;;;;;;;5056188;28;19908;-47
2022/03/27 01:34:19;;;;;;;;;;;;;;;;;;5056148;28;19905;-48
2022/03/27 01:36:45;;;;;;;;;;;;;;;;;;5056037;28;19905;-47
2022/03/27 01:39:11;;;;;;;;;;;;;;;;;;5056047;28;19916;-47
2022/03/27 01:41:36;;;;;;;;;;;;;;;;;;5055988;28;20371;-47
2022/03/27 01:44:02;;;;;;;;;;;;;;;;;;5055916;28;19904;-46
2022/03/27 01:46:28;;;;;;;;;;;;;;;;;;5055824;28;19965;-47
2022/03/27 01:48:54;;;;;;;;;;;;;;;;;;5055849;28;20393;-47
2022/03/27 01:51:20;;;;;;;;;;;;;;;;;;5055949;28;19904;-47
2022/03/27 01:53:46;;;;;;;;;;;;;;;;;;5055699;28;20371;-47
2022/03/27 01:56:12;;;;;;;;;;;;;;;;;;5055697;28;19932;-47
2022/03/27 01:58:38;;;;;;;;;;;;;;;;;;5055698;28;19951;-47
2022/03/27 02:01:05;;;;;;;;;;;;;;;;;;5055542;28;19909;-47
2022/03/27 02:03:30;;;;;;;;;;;;;;;;;;5055382;28;20007;-46
2022/03/27 02:05:56;;;;;;;;;;;;;;;;;;5055377;28;20354;-47
2022/03/27 02:08:23;;;;;;;;;;;;;;;;;;5055561;28;19905;-47
2022/03/27 02:10:49;;;;;;;;;;;;;;;;;;5055376;28;19974;-47
2022/03/27 02:13:15;;;;;;;;;;;;;;;;;;5055370;28;20371;-48
2022/03/27 02:15:40;;;;;;;;;;;;;;;;;;5055325;28;19954;-46
2022/03/27 02:18:06;;;;;;;;;;;;;;;;;;5055277;28;20386;-47
2022/03/27 02:20:32;;;;;;;;;;;;;;;;;;5055231;28;20329;-46
2022/03/27 02:22:58;;;;;;;;;;;;;;;;;;5055173;28;19911;-46
2022/03/27 02:25:24;;;;;;;;;;;;;;;;;;5055203;28;20481;-47
2022/03/27 02:27:50;;;;;;;;;;;;;;;;;;5055354;28;20007;-47
2022/03/27 02:30:18;;;;;;;;;;;;;;;;;;5055085;28;19912;-47
2022/03/27 02:32:44;;;;;;;;;;;;;;;;;;5055063;28;19904;-47
2022/03/27 02:35:09;;;;;;;;;;;;;;;;;;5055182;28;19905;-46
2022/03/27 02:37:35;;;;;;;;;;;;;;;;;;5054059;28;20278;-46
2022/03/27 02:40:01;;;;;;;;;;;;;;;;;;5054884;28;19908;-46
2022/03/27 02:42:27;;;;;;;;;;;;;;;;;;5055063;28;19916;-46
2022/03/27 02:44:53;;;;;;;;;;;;;;;;;;5054865;28;20366;-47
2022/03/27 02:47:19;;;;;;;;;;;;;;;;;;5054722;28;19913;-46
2022/03/27 02:49:45;;;;;;;;;;;;;;;;;;5054686;28;19911;-47
2022/03/27 02:52:11;;;;;;;;;;;;;;;;;;5054633;28;19909;-46
2022/03/27 02:54:37;;;;;;;;;;;;;;;;;;5054887;28;19931;-46
2022/03/27 02:57:02;;;;;;;;;;;;;;;;;;5054459;28;19904;-46
2022/03/27 02:59:28;;;;;;;;;;;;;;;;;;5054573;28;19912;-46
2022/03/27 03:01:54;;;;;;;;;;;;;;;;;;5054198;28;20282;-48
2022/03/27 03:04:20;;;;;;;;;;;;;;;;;;5054450;28;20065;-46
2022/03/27 03:06:46;;;;;;;;;;;;;;;;;;5054376;28;20011;-46
2022/03/27 03:09:12;;;;;;;;;;;;;;;;;;5054287;28;20383;-46
2022/03/27 03:11:38;;;;;;;;;;;;;;;;;;5054523;28;19997;-47
2022/03/27 03:14:04;;;;;;;;;;;;;;;;;;5054234;28;20379;-46
2022/03/27 03:16:30;;;;;;;;;;;;;;;;;;5054243;28;19905;-47
2022/03/27 03:18:55;;;;;;;;;;;;;;;;;;5054117;28;19931;-46
2022/03/27 03:21:21;;;;;;;;;;;;;;;;;;5054131;28;19947;-48
2022/03/27 03:23:47;;;;;;;;;;;;;;;;;;5054113;28;19912;-46
2022/03/27 03:26:13;;;;;;;;;;;;;;;;;;5053861;28;19947;-48
2022/03/27 03:28:39;;;;;;;;;;;;;;;;;;5053956;28;19905;-46
2022/03/27 03:31:05;;;;;;;;;;;;;;;;;;5053844;28;19966;-46
2022/03/27 03:33:31;;;;;;;;;;;;;;;;;;5053912;28;20148;-46
2022/03/27 03:35:57;;;;;;;;;;;;;;;;;;5054017;28;19911;-47
2022/03/27 03:38:22;;;;;;;;;;;;;;;;;;5053746;28;19995;-47
2022/03/27 03:40:48;;;;;;;;;;;;;;;;;;5053803;28;19912;-47
2022/03/27 03:43:14;;;;;;;;;;;;;;;;;;5053628;28;20367;-47
2022/03/27 03:45:41;;;;;;;;;;;;;;;;;;5053813;28;19905;-46
2022/03/27 03:48:07;;;;;;;;;;;;;;;;;;5053590;28;19963;-47
2022/03/27 03:50:35;;;;;;;;;;;;;;;;;;5053513;28;20311;-46
2022/03/27 03:53:01;;;;;;;;;;;;;;;;;;5053789;28;19975;-46
2022/03/27 03:55:27;;;;;;;;;;;;;;;;;;5053432;28;19948;-46
2022/03/27 03:57:53;;;;;;;;;;;;;;;;;;5053429;28;19904;-46
2022/03/27 04:00:18;;;;;;;;;;;;;;;;;;5053413;28;19905;-47
2022/03/27 04:02:44;;;;;;;;;;;;;;;;;;5053144;28;19986;-47
2022/03/27 04:05:10;;;;;;;;;;;;;;;;;;5053280;28;19919;-46
2022/03/27 04:07:36;;;;;;;;;;;;;;;;;;5053068;28;19931;-47
2022/03/27 04:10:03;;;;;;;;;;;;;;;;;;5053378;28;19904;-47
2022/03/27 04:12:29;;;;;;;;;;;;;;;;;;5053080;28;19911;-46
2022/03/27 04:14:56;;;;;;;;;;;;;;;;;;5053356;28;20015;-47
2022/03/27 04:17:22;;;;;;;;;;;;;;;;;;5053086;28;20429;-47
2022/03/27 04:19:48;;;;;;;;;;;;;;;;;;5053035;28;19904;-46
2022/03/27 04:22:14;;;;;;;;;;;;;;;;;;5052948;28;19911;-46
2022/03/27 04:24:39;;;;;;;;;;;;;;;;;;5052955;28;20351;-48
2022/03/27 04:27:05;;;;;;;;;;;;;;;;;;5052779;28;19920;-46
2022/03/27 04:29:31;;;;;;;;;;;;;;;;;;5052783;28;19955;-47
2022/03/27 04:31:57;;;;;;;;;;;;;;;;;;5052886;28;20012;-48
2022/03/27 04:34:23;;;;;;;;;;;;;;;;;;5052847;28;19904;-48
2022/03/27 04:36:49;;;;;;;;;;;;;;;;;;5052907;28;19955;-59
2022/03/27 04:39:15;;;;;;;;;;;;;;;;;;5052741;28;19904;-59
2022/03/27 04:41:41;;;;;;;;;;;;;;;;;;5052732;28;19936;-59
2022/03/27 04:44:07;;;;;;;;;;;;;;;;;;5052731;28;19912;-59
2022/03/27 04:46:33;;;;;;;;;;;;;;;;;;5052563;28;19978;-59
2022/03/27 04:48:58;;;;;;;;;;;;;;;;;;5052645;28;19940;-59
2022/03/27 04:51:24;;;;;;;;;;;;;;;;;;5052570;28;20382;-60
2022/03/27 04:53:50;;;;;;;;;;;;;;;;;;5052628;28;20420;-59
2022/03/27 04:56:16;;;;;;;;;;;;;;;;;;5052632;28;19905;-59
2022/03/27 04:58:42;;;;;;;;;;;;;;;;;;5052539;28;20007;-60
2022/03/27 05:01:08;;;;;;;;;;;;;;;;;;5057749;28;19904;-59
2022/03/27 05:03:34;;;;;;;;;;;;;;;;;;5058902;28;19924;-59
2022/03/27 05:06:00;;;;;;;;;;;;;;;;;;5059078;28;19944;-60
2022/03/27 05:08:26;;;;;;;;;;;;;;;;;;5059093;28;19955;-59
2022/03/27 05:10:52;;;;;;;;;;;;;;;;;;5059312;28;19915;-59
2022/03/27 05:13:18;;;;;;;;;;;;;;;;;;5059454;28;20395;-47
2022/03/27 05:15:44;;;;;;;;;;;;;;;;;;5059030;28;19905;-48
2022/03/27 05:18:10;;;;;;;;;;;;;;;;;;5059268;28;19985;-46
2022/03/27 05:20:36;;;;;;;;;;;;;;;;;;5059240;28;20442;-47
2022/03/27 05:23:02;;;;;;;;;;;;;;;;;;5058956;28;19904;-46
2022/03/27 05:25:28;;;;;;;;;;;;;;;;;;5059245;28;19955;-47
2022/03/27 05:27:54;;;;;;;;;;;;;;;;;;5058838;28;19917;-47
2022/03/27 05:30:21;;;;;;;;;;;;;;;;;;5058941;28;19950;-46
2022/03/27 05:32:47;;;;;;;;;;;;;;;;;;5059201;28;19982;-59
2022/03/27 05:35:13;;;;;;;;;;;;;;;;;;5058917;28;19939;-60
2022/03/27 05:37:39;;;;;;;;;;;;;;;;;;5058834;28;20278;-59
2022/03/27 05:40:05;;;;;;;;;;;;;;;;;;5058799;28;19904;-59
2022/03/27 05:42:31;;;;;;;;;;;;;;;;;;5059048;28;20029;-59
2022/03/27 05:44:57;;;;;;;;;;;;;;;;;;5058751;28;19908;-59
2022/03/27 05:47:23;;;;;;;;;;;;;;;;;;5058765;28;20011;-59
2022/03/27 05:49:49;;;;;;;;;;;;;;;;;;5058822;28;19912;-59
2022/03/27 05:52:16;;;;;;;;;;;;;;;;;;5058743;28;20336;-59
2022/03/27 05:54:42;;;;;;;;;;;;;;;;;;5058715;28;19912;-58
2022/03/27 05:57:08;;;;;;;;;;;;;;;;;;5058658;28;19905;-59
2022/03/27 05:59:33;;;;;;;;;;;;;;;;;;5058663;28;19911;-59
2022/03/27 06:01:59;;;;;;;;;;;;;;;;;;5058279;28;20417;-59
2022/03/27 06:04:25;;;;;;;;;;;;;;;;;;5058684;28;20011;-59
2022/03/27 06:06:51;;;;;;;;;;;;;;;;;;5058504;28;19920;-59
2022/03/27 06:09:17;;;;;;;;;;;;;;;;;;5058937;28;19930;-59
2022/03/27 06:11:43;;;;;;;;;;;;;;;;;;5055889;28;19905;-59
2022/03/27 06:14:09;;;;;;;;;;;;;;;;;;5055405;28;19905;-59
2022/03/27 06:16:35;;;;;;;;;;;;;;;;;;5055352;28;20291;-60
2022/03/27 06:19:01;;;;;;;;;;;;;;;;;;5055291;28;19909;-59
2022/03/27 06:21:26;;;;;;;;;;;;;;;;;;5055223;28;19904;-60
2022/03/27 06:23:52;;;;;;;;;;;;;;;;;;5055115;28;20469;-60
2022/03/27 06:26:18;;;;;;;;;;;;;;;;;;5055154;28;19917;-59
2022/03/27 06:28:44;;;;;;;;;;;;;;;;;;5055172;28;20366;-59
2022/03/27 06:31:10;;;;;;;;;;;;;;;;;;5055367;28;19931;-59
2022/03/27 06:33:36;;;;;;;;;;;;;;;;;;5055062;28;19991;-59
2022/03/27 06:36:02;;;;;;;;;;;;;;;;;;5054983;28;19911;-60
2022/03/27 06:38:28;;;;;;;;;;;;;;;;;;5055678;28;19995;-60
2022/03/27 06:40:55;;;;;;;;;;;;;;;;;;5055015;28;20331;-59
2022/03/27 06:43:21;;;;;;;;;;;;;;;;;;5054975;28;19948;-60
2022/03/27 06:45:47;;;;;;;;;;;;;;;;;;5054993;28;20421;-60
2022/03/27 06:48:13;;;;;;;;;;;;;;;;;;5054806;28;19913;-60
2022/03/27 06:50:39;;;;;;;;;;;;;;;;;;5054832;28;19912;-59
2022/03/27 06:53:05;;;;;;;;;;;;;;;;;;5054674;28;19980;-60
2022/03/27 06:55:32;;;;;;;;;;;;;;;;;;5054938;28;19988;-59
2022/03/27 06:57:58;;;;;;;;;;;;;;;;;;5054547;28;19905;-60
2022/03/27 07:03:11;;;;;;;;;;;;;;;;;;5054458;28;20019;-59
2022/03/27 07:05:38;;;;;;;;;;;;;;;;;;5054550;28;19905;-59
2022/03/27 07:08:03;;;;;;;;;;;;;;;;;;5054648;28;20279;-59
2022/03/27 07:10:30;;;;;;;;;;;;;;;;;;5054425;28;19904;-59
2022/03/27 07:12:56;;;;;;;;;;;;;;;;;;5054612;28;19909;-59
2022/03/27 07:15:23;;;;;;;;;;;;;;;;;;5054321;28;20386;-60
2022/03/27 07:17:49;;;;;;;;;;;;;;;;;;5054514;28;19911;-59
2022/03/27 07:20:15;;;;;;;;;;;;;;;;;;5054307;28;19991;-59
2022/03/27 07:22:41;;;;;;;;;;;;;;;;;;5053917;28;19908;-60
2022/03/27 07:25:07;;;;;;;;;;;;;;;;;;5054210;28;19905;-60
2022/03/27 07:27:33;;;;;;;;;;;;;;;;;;5054051;28;19939;-60
2022/03/27 07:29:59;;;;;;;;;;;;;;;;;;5053955;28;20302;-59
2022/03/27 07:32:25;;;;;;;;;;;;;;;;;;5053791;28;19904;-60
2022/03/27 07:34:51;;;;;;;;;;;;;;;;;;5053733;28;20039;-60
2022/03/27 07:37:16;;;;;;;;;;;;;;;;;;5053660;28;19912;-60
2022/03/27 07:39:42;;;;;;;;;;;;;;;;;;5053755;28;19947;-60
2022/03/27 07:42:08;;;;;;;;;;;;;;;;;;5053641;28;19912;-60
2022/03/27 07:44:34;;;;;;;;;;;;;;;;;;5053457;28;19966;-60
2022/03/27 07:47:00;;;;;;;;;;;;;;;;;;5053400;28;19912;-60
2022/03/27 07:49:26;;;;;;;;;;;;;;;;;;5053483;28;19905;-59
2022/03/27 07:51:52;;;;;;;;;;;;;;;;;;5053638;28;19963;-60
2022/03/27 07:54:18;;;;;;;;;;;;;;;;;;5053359;28;19904;-60
2022/03/27 07:56:44;;;;;;;;;;;;;;;;;;5035331;28;20364;-60
2022/03/27 07:59:09;;;;;;;;;;;;;;;;;;5053273;28;19911;-60
2022/03/27 08:01:35;;;;;;;;;;;;;;;;;;5053172;28;20301;-60
2022/03/27 08:04:02;;;;;;;;;;;;;;;;;;5053046;28;19971;-59
2022/03/27 08:06:29;;;;;;;;;;;;;;;;;;5053347;28;19909;-60
2022/03/27 08:08:56;;;;;;;;;;;;;;;;;;5053068;28;20135;-60
2022/03/27 08:11:23;;;;;;;;;;;;;;;;;;5053005;28;19909;-60
2022/03/27 08:13:49;;;;;;;;;;;;;;;;;;5052908;28;19905;-60
2022/03/27 08:16:15;;;;;;;;;;;;;;;;;;5052944;28;20485;-60
2022/03/27 08:18:42;;;;;;;;;;;;;;;;;;5052972;28;19904;-60
2022/03/27 08:21:08;;;;;;;;;;;;;;;;;;5052956;28;19987;-59
2022/03/27 08:23:33;;;;;;;;;;;;;;;;;;5052834;28;20339;-60
2022/03/27 08:28:44;;;;;;;;;;;;;;;;;;5052834;28;20282;-60
2022/03/27 08:31:09;;;;;;;;;;;;;;;;;;5052613;28;19904;-60
2022/03/27 08:33:35;;;;;;;;;;;;;;;;;;5052676;28;19905;-60
2022/03/27 08:36:01;;;;;;;;;;;;;;;;;;5051987;28;19908;-60
2022/03/27 08:38:27;;;;;;;;;;;;;;;;;;5052615;28;19911;-59
2022/03/27 08:40:53;;;;;;;;;;;;;;;;;;5052585;28;19905;-59
2022/03/27 08:43:19;;;;;;;;;;;;;;;;;;5052504;28;20346;-60
2022/03/27 08:45:45;;;;;;;;;;;;;;;;;;5052822;28;19913;-60
2022/03/27 08:48:11;;;;;;;;;;;;;;;;;;5052439;28;19917;-59
2022/03/27 08:50:37;;;;;;;;;;;;;;;;;;5052310;28;19905;-59
2022/03/27 08:53:04;;;;;;;;;;;;;;;;;;5052400;28;19905;-60
2022/03/27 08:55:29;;;;;;;;;;;;;;;;;;5052671;28;19911;-59
2022/03/27 08:57:56;;;;;;;;;;;;;;;;;;5052374;28;20275;-59
2022/03/27 09:00:22;;;;;;;;;;;;;;;;;;5052324;28;19908;-60
2022/03/27 09:02:47;;;;;;;;;;;;;;;;;;5052059;28;20011;-60
2022/03/27 09:05:13;;;;;;;;;;;;;;;;;;5052232;28;19911;-59
2022/03/27 09:07:39;;;;;;;;;;;;;;;;;;5052121;28;19912;-60
2022/03/27 09:10:05;;;;;;;;;;;;;;;;;;5052140;28;19909;-60
2022/03/27 09:12:31;;;;;;;;;;;;;;;;;;5052264;28;19909;-60
2022/03/27 09:14:57;;;;;;;;;;;;;;;;;;5052235;28;20540;-60
2022/03/27 09:17:23;;;;;;;;;;;;;;;;;;5034522;28;19987;-60
2022/03/27 09:19:49;;;;;;;;;;;;;;;;;;5052209;28;19950;-60
2022/03/27 09:22:15;;;;;;;;;;;;;;;;;;5052244;28;19905;-60
2022/03/27 09:24:40;;;;;;;;;;;;;;;;;;5052109;28;19995;-59
2022/03/27 09:27:06;;;;;;;;;;;;;;;;;;5052258;28;19920;-60
2022/03/27 09:29:32;;;;;;;;;;;;;;;;;;5052292;28;19905;-60
2022/03/27 09:31:58;;;;;;;;;;;;;;;;;;5052301;28;20351;-60
2022/03/27 09:34:24;;;;;;;;;;;;;;;;;;5052243;28;19912;-59
2022/03/27 09:36:51;;;;;;;;;;;;;;;;;;5052061;28;19912;-60
2022/03/27 09:39:17;;;;;;;;;;;;;;;;;;5034234;28;19940;-60
2022/03/27 09:41:44;;;;;;;;;;;;;;;;;;5052052;28;19912;-60
2022/03/27 09:44:10;;;;;;;;;;;;;;;;;;5052041;28;19944;-60
2022/03/27 09:46:35;;;;;;;;;;;;;;;;;;5053627;28;19962;-60
2022/03/27 09:49:01;;;;;;;;;;;;;;;;;;5055911;28;19952;-61
2022/03/27 09:51:27;;;;;;;;;;;;;;;;;;5055839;28;19904;-60
2022/03/27 09:53:53;;;;;;;;;;;;;;;;;;5055792;28;19974;-61
2022/03/27 09:56:22;;;;;;;;;;;;;;;;;;5055522;28;20009;-60
2022/03/27 09:58:47;;;;;;;;;;;;;;;;;;5055620;28;19908;-61
2022/03/27 10:01:13;;;;;;;;;;;;;;;;;;5055887;28;19992;-60
2022/03/27 10:03:40;;;;;;;;;;;;;;;;;;5055272;28;19917;-60
2022/03/27 10:06:06;;;;;;;;;;;;;;;;;;5055508;28;20007;-60
2022/03/27 10:08:31;;;;;;;;;;;;;;;;;;5037672;28;20008;-60
2022/03/27 10:10:58;;;;;;;;;;;;;;;;;;5055572;28;20003;-60
2022/03/27 10:13:24;;;;;;;;;;;;;;;;;;5055652;28;20278;-60
2022/03/27 10:15:50;;;;;;;;;;;;;;;;;;5055425;28;19905;-61
2022/03/27 10:18:17;;;;;;;;;;;;;;;;;;5055723;28;19965;-60
2022/03/27 10:20:43;;;;;;;;;;;;;;;;;;5055452;28;20264;-60
2022/03/27 10:23:09;;;;;;;;;;;;;;;;;;5055395;28;19997;-60
2022/03/27 10:25:35;;;;;;;;;;;;;;;;;;5055071;28;19971;-60
2022/03/27 10:28:01;;;;;;;;;;;;;;;;;;5054851;28;19917;-60
2022/03/27 10:30:27;;;;;;;;;;;;;;;;;;5054926;28;19911;-60
2022/03/27 10:32:53;;;;;;;;;;;;;;;;;;5054857;28;19999;-60
2022/03/27 10:35:19;;;;;;;;;;;;;;;;;;5055024;28;19905;-60
2022/03/27 10:37:45;;;;;;;;;;;;;;;;;;5054933;28;20194;-60
2022/03/27 10:40:11;;;;;;;;;;;;;;;;;;5054978;28;20070;-60
2022/03/27 10:42:37;;;;;;;;;;;;;;;;;;5055046;28;19912;-60
2022/03/27 10:45:03;;;;;;;;;;;;;;;;;;5054639;28;19970;-60
2022/03/27 10:47:29;;;;;;;;;;;;;;;;;;5054576;28;19913;-60
2022/03/27 10:49:55;;;;;;;;;;;;;;;;;;5054487;28;19927;-60
2022/03/27 10:52:21;;;;;;;;;;;;;;;;;;5054481;28;20359;-60
2022/03/27 10:54:46;;;;;;;;;;;;;;;;;;5054478;28;19904;-60
2022/03/27 10:57:12;;;;;;;;;;;;;;;;;;5054090;28;19930;-60
2022/03/27 10:59:38;;;;;;;;;;;;;;;;;;5054023;28;19905;-60
2022/03/27 11:02:04;;;;;;;;;;;;;;;;;;5054384;28;19912;-60
2022/03/27 11:04:30;;;;;;;;;;;;;;;;;;5054059;28;19917;-60
2022/03/27 11:06:56;;;;;;;;;;;;;;;;;;5054167;28;19909;-60
2022/03/27 11:09:22;;;;;;;;;;;;;;;;;;5054217;28;19915;-60
2022/03/27 11:11:48;;;;;;;;;;;;;;;;;;5054175;28;20335;-60
2022/03/27 11:14:14;;;;;;;;;;;;;;;;;;5054334;28;19904;-60
2022/03/27 11:16:41;;;;;;;;;;;;;;;;;;5054037;28;19912;-60
2022/03/27 11:19:07;;;;;;;;;;;;;;;;;;5054358;28;20267;-60
2022/03/27 11:21:33;;;;;;;;;;;;;;;;;;5053949;28;19951;-60
2022/03/27 11:23:59;;;;;;;;;;;;;;;;;;5053881;28;19904;-60
2022/03/27 11:26:25;;;;;;;;;;;;;;;;;;5053799;28;20011;-60
2022/03/27 11:28:52;;;;;;;;;;;;;;;;;;5054036;28;19908;-61
2022/03/27 11:31:17;;;;;;;;;;;;;;;;;;5053949;28;19909;-61
2022/03/27 11:33:45;;;;;;;;;;;;;;;;;;5053762;28;19905;-61
2022/03/27 11:36:11;;;;;;;;;;;;;;;;;;5053744;28;20425;-60
2022/03/27 11:38:37;;;;;;;;;;;;;;;;;;5053735;28;19960;-48
2022/03/27 11:41:03;;;;;;;;;;;;;;;;;;5053603;28;19912;-47
2022/03/27 11:43:29;;;;;;;;;;;;;;;;;;5053498;28;19974;-47
2022/03/27 11:45:55;;;;;;;;;;;;;;;;;;5053584;28;19911;-47
2022/03/27 11:48:21;;;;;;;;;;;;;;;;;;5053653;28;19918;-46
2022/03/27 11:50:47;;;;;;;;;;;;;;;;;;5053423;28;19905;-46
2022/03/27 11:53:13;;;;;;;;;;;;;;;;;;5053347;28;19971;-47
2022/03/27 11:55:39;;;;;;;;;;;;;;;;;;5053338;28;20320;-47
2022/03/27 11:58:07;;;;;;;;;;;;;;;;;;5053584;28;19905;-47
2022/03/27 12:00:34;;;;;;;;;;;;;;;;;;5053413;28;20322;-47
2022/03/27 12:03:00;;;;;;;;;;;;;;;;;;5052701;28;19917;-46
2022/03/27 12:05:26;;;;;;;;;;;;;;;;;;5053340;28;19905;-47
2022/03/27 12:07:52;;;;;;;;;;;;;;;;;;5053148;28;20023;-50
2022/03/27 12:10:18;;;;;;;;;;;;;;;;;;5052442;28;19947;-46
2022/03/27 12:12:44;;;;;;;;;;;;;;;;;;5053394;28;20248;-46
2022/03/27 12:15:10;;;;;;;;;;;;;;;;;;5053131;28;19931;-46
2022/03/27 12:17:37;;;;;;;;;;;;;;;;;;5053148;28;19905;-46
2022/03/27 12:20:04;;;;;;;;;;;;;;;;;;5053090;28;20278;-47
2022/03/27 12:22:30;;;;;;;;;;;;;;;;;;5053268;28;19908;-47
2022/03/27 12:24:55;;;;;;;;;;;;;;;;;;5052925;28;19911;-46
2022/03/27 12:30:06;;;;;;;;;;;;;;;;;;5052889;28;19968;-47
2022/03/27 12:32:32;;;;;;;;;;;;;;;;;;5052805;28;19913;-47
2022/03/27 12:35:01;;;;;;;;;;;;;;;;;;5052934;28;19996;-46
2022/03/27 12:37:27;;;;;;;;;;;;;;;;;;5052699;28;20425;-47
2022/03/27 12:39:53;;;;;;;;;;;;;;;;;;5052739;28;19905;-47
2022/03/27 12:42:19;;;;;;;;;;;;;;;;;;5052688;28;19905;-48
2022/03/27 12:44:44;;;;;;;;;;;;;;;;;;5052691;28;19911;-47
2022/03/27 12:47:10;;;;;;;;;;;;;;;;;;5052575;28;20329;-48
2022/03/27 12:49:36;;;;;;;;;;;;;;;;;;5052804;28;19992;-47
2022/03/27 12:52:02;;;;;;;;;;;;;;;;;;5052601;28;19959;-47
2022/03/27 12:54:28;;;;;;;;;;;;;;;;;;5052640;28;19947;-47
2022/03/27 12:56:54;;;;;;;;;;;;;;;;;;5052518;28;19931;-47
2022/03/27 12:59:20;;;;;;;;;;;;;;;;;;5052495;28;19904;-47
2022/03/27 13:01:46;;;;;;;;;;;;;;;;;;5052377;28;19950;-47
2022/03/27 13:04:13;;;;;;;;;;;;;;;;;;5052360;28;19971;-47
2022/03/27 13:06:43;;;;;;;;;;;;;;;;;;5052303;28;19908;-47
2022/03/27 13:09:13;;;;;;;;;;;;;;;;;;5052479;28;19905;-48
2022/03/27 13:11:40;;;;;;;;;;;;;;;;;;5034615;28;19913;-60
2022/03/27 13:14:06;;;;;;;;;;;;;;;;;;5052475;28;19909;-59
2022/03/27 13:16:33;;;;;;;;;;;;;;;;;;5052507;28;19905;-59
2022/03/27 13:19:08;;;;;;;;;;;;;;;;;;5052475;28;19905;-59
2022/03/27 13:21:37;;;;;;;;;;;;;;;;;;5036038;28;19905;-58
2022/03/27 13:24:03;;;;;;;;;;;;;;;;;;5056442;28;19996;-59
2022/03/27 13:26:29;;;;;;;;;;;;;;;;;;5056289;28;19909;-59
2022/03/27 13:28:55;;;;;;;;;;;;;;;;;;5056355;28;19916;-59
2022/03/27 13:31:21;;;;;;;;;;;;;;;;;;5056276;28;19909;-48
2022/03/27 13:33:47;;;;;;;;;;;;;;;;;;5056147;28;20014;-48
2022/03/27 13:36:13;;;;;;;;;;;;;;;;;;5056190;28;20367;-48
2022/03/27 13:38:39;;;;;;;;;;;;;;;;;;5056154;28;19905;-49
2022/03/27 13:43:49;;;;;;;;;;;;;;;;;;5056050;28;19912;-48
2022/03/27 13:46:15;;;;;;;;;;;;;;;;;;5037911;28;19905;-47
2022/03/27 13:48:41;;;;;;;;;;;;;;;;;;5055966;28;19913;-48
2022/03/27 13:51:07;;;;;;;;;;;;;;;;;;5055926;28;19955;-47
2022/03/27 13:53:33;;;;;;;;;;;;;;;;;;5055888;28;20006;-47
2022/03/27 13:55:59;;;;;;;;;;;;;;;;;;5055839;28;20003;-47
2022/03/27 13:58:25;;;;;;;;;;;;;;;;;;5055715;28;20294;-48
2022/03/27 14:00:51;;;;;;;;;;;;;;;;;;5055679;28;19948;-48
2022/03/27 14:03:17;;;;;;;;;;;;;;;;;;5055443;28;19917;-47
2022/03/27 14:05:43;;;;;;;;;;;;;;;;;;5055581;28;19911;-47
2022/03/27 14:08:08;;;;;;;;;;;;;;;;;;5055612;28;20008;-47
2022/03/27 14:10:35;;;;;;;;;;;;;;;;;;5055558;28;20355;-47
2022/03/27 14:13:00;;;;;;;;;;;;;;;;;;5055483;28;20373;-47
2022/03/27 14:15:26;;;;;;;;;;;;;;;;;;5055433;28;20007;-47
2022/03/27 14:17:52;;;;;;;;;;;;;;;;;;5055326;28;20290;-48
2022/03/27 14:20:18;;;;;;;;;;;;;;;;;;5055619;28;20023;-48
2022/03/27 14:22:44;;;;;;;;;;;;;;;;;;5055266;28;20418;-49
2022/03/27 14:25:13;;;;;;;;;;;;;;;;;;5055419;28;19905;-48
2022/03/27 14:27:40;;;;;;;;;;;;;;;;;;5055435;28;19912;-48
2022/03/27 14:30:06;;;;;;;;;;;;;;;;;;5055120;28;19951;-47
2022/03/27 14:32:32;;;;;;;;;;;;;;;;;;5054246;28;19908;-47
2022/03/27 14:34:58;;;;;;;;;;;;;;;;;;5055103;28;19911;-48
2022/03/27 14:37:24;;;;;;;;;;;;;;;;;;5054987;28;19908;-48
2022/03/27 14:39:50;;;;;;;;;;;;;;;;;;5054958;28;20457;-48
2022/03/27 14:42:16;;;;;;;;;;;;;;;;;;5055286;28;19912;-47
2022/03/27 14:44:42;;;;;;;;;;;;;;;;;;5055174;28;20405;-59
2022/03/27 14:47:08;;;;;;;;;;;;;;;;;;5054802;28;19908;-59
2022/03/27 14:49:34;;;;;;;;;;;;;;;;;;5054772;28;19905;-59
2022/03/27 14:52:00;;;;;;;;;;;;;;;;;;5054718;28;19911;-59
2022/03/27 14:57:10;;;;;;;;;;;;;;;;;;5054671;28;19931;-60
2022/03/27 14:59:36;;;;;;;;;;;;;;;;;;5054863;28;19905;-59
2022/03/27 15:02:02;;;;;;;;;;;;;;;;;;5054830;28;19904;-59
2022/03/27 15:04:28;;;;;;;;;;;;;;;;;;5054414;28;19916;-59
2022/03/27 15:06:54;;;;;;;;;;;;;;;;;;5054355;28;19915;-59
2022/03/27 15:09:20;;;;;;;;;;;;;;;;;;5054337;28;19909;-59
2022/03/27 15:11:46;;;;;;;;;;;;;;;;;;5054343;28;19928;-59
2022/03/27 15:14:12;;;;;;;;;;;;;;;;;;5054488;28;19962;-60
2022/03/27 15:16:38;;;;;;;;;;;;;;;;;;5054179;28;19912;-59
2022/03/27 15:19:03;;;;;;;;;;;;;;;;;;5054473;28;19904;-60
2022/03/27 15:21:29;;;;;;;;;;;;;;;;;;5054270;28;20283;-60
2022/03/27 15:23:55;;;;;;;;;;;;;;;;;;5054112;28;19905;-59
2022/03/27 15:26:21;;;;;;;;;;;;;;;;;;5053979;28;19919;-60
2022/03/27 15:28:47;;;;;;;;;;;;;;;;;;5054105;28;19915;-60
2022/03/27 15:31:13;;;;;;;;;;;;;;;;;;5054315;28;20341;-60
2022/03/27 15:33:41;;;;;;;;;;;;;;;;;;5053997;28;20391;-59
2022/03/27 15:36:08;;;;;;;;;;;;;;;;;;5053887;28;19911;-59
2022/03/27 15:38:34;;;;;;;;;;;;;;;;;;5053961;28;19912;-59
2022/03/27 15:41:00;;;;;;;;;;;;;;;;;;5053855;28;19904;-60
2022/03/27 15:43:25;;;;;;;;;;;;;;;;;;5053626;28;19987;-60
2022/03/27 15:45:51;;;;;;;;;;;;;;;;;;5053832;28;19909;-59
2022/03/27 15:48:17;;;;;;;;;;;;;;;;;;5053500;28;19913;-60
2022/03/27 15:50:43;;;;;;;;;;;;;;;;;;5053607;28;19905;-59
2022/03/27 15:53:09;;;;;;;;;;;;;;;;;;5053463;28;19905;-59
2022/03/27 15:55:35;;;;;;;;;;;;;;;;;;5053477;28;19948;-60
2022/03/27 15:58:01;;;;;;;;;;;;;;;;;;5053692;28;19962;-60
2022/03/27 16:00:27;;;;;;;;;;;;;;;;;;5053487;28;19905;-60
2022/03/27 16:02:52;;;;;;;;;;;;;;;;;;5053085;28;19952;-60
2022/03/27 16:05:18;;;;;;;;;;;;;;;;;;5053225;28;19905;-60
2022/03/27 16:07:45;;;;;;;;;;;;;;;;;;5053328;28;19917;-60
2022/03/27 16:10:11;;;;;;;;;;;;;;;;;;5053374;28;20003;-59
2022/03/27 16:12:37;;;;;;;;;;;;;;;;;;5053252;28;19904;-59
2022/03/27 16:15:03;;;;;;;;;;;;;;;;;;5053352;28;19911;-59
2022/03/27 16:17:30;;;;;;;;;;;;;;;;;;5053241;28;19912;-48
2022/03/27 16:19:55;;;;;;;;;;;;;;;;;;5053205;28;19905;-48
2022/03/27 16:22:21;;;;;;;;;;;;;;;;;;5053107;28;19962;-48
2022/03/27 16:24:47;;;;;;;;;;;;;;;;;;5053143;28;19999;-48
2022/03/27 16:27:17;;;;;;;;;;;;;;;;;;5052976;28;20177;-48
2022/03/27 16:29:43;;;;;;;;;;;;;;;;;;5052919;28;19955;-47
2022/03/27 16:32:09;;;;;;;;;;;;;;;;;;5053136;28;20248;-47
2022/03/27 16:34:35;;;;;;;;;;;;;;;;;;5052760;28;19904;-47
2022/03/27 16:37:01;;;;;;;;;;;;;;;;;;5052981;28;19919;-48
2022/03/27 16:39:27;;;;;;;;;;;;;;;;;;5052616;28;19909;-48
2022/03/27 16:41:53;;;;;;;;;;;;;;;;;;5052740;28;19996;-48
2022/03/27 16:44:19;;;;;;;;;;;;;;;;;;5052585;28;19905;-47
2022/03/27 16:46:44;;;;;;;;;;;;;;;;;;5052550;28;19913;-48
2022/03/27 16:49:10;;;;;;;;;;;;;;;;;;5052606;28;19911;-48
2022/03/27 16:51:36;;;;;;;;;;;;;;;;;;5052853;28;19905;-48